sensor_id;sensor_type;location;lat;lon;timestamp;temperature;humidity
72126;SHT31;59999;51.676;22.650;2023-03-24T00:01:03;12.90;72.86
72126;SHT31;59999;51.676;22.650;2023-03-24T00:03:30;12.86;72.87
72126;SHT31;59999;51.676;22.650;2023-03-24T00:06:03;12.80;73.04
72126;SHT31;59999;51.676;22.650;2023-03-24T00:08:31;12.77;73.17
72126;SHT31;59999;51.676;22.650;2023-03-24T00:11:01;12.72;73.26
72126;SHT31;59999;51.676;22.650;2023-03-24T00:13:28;12.67;73.35
72126;SHT31;59999;51.676;22.650;2023-03-24T00:15:54;12.59;73.53
72126;SHT31;59999;51.676;22.650;2023-03-24T00:18:20;12.55;73.62
72126;SHT31;59999;51.676;22.650;2023-03-24T00:20:47;12.50;73.68
72126;SHT31;59999;51.676;22.650;2023-03-24T00:23:13;12.48;73.78
72126;SHT31;59999;51.676;22.650;2023-03-24T00:25:40;12.43;73.94
72126;SHT31;59999;51.676;22.650;2023-03-24T00:28:06;12.43;73.94
72126;SHT31;59999;51.676;22.650;2023-03-24T00:30:33;12.38;74.02
72126;SHT31;59999;51.676;22.650;2023-03-24T00:33:00;12.36;74.02
72126;SHT31;59999;51.676;22.650;2023-03-24T00:35:27;12.35;74.04
72126;SHT31;59999;51.676;22.650;2023-03-24T00:37:53;12.38;73.88
72126;SHT31;59999;51.676;22.650;2023-03-24T00:40:20;12.41;73.86
72126;SHT31;59999;51.676;22.650;2023-03-24T00:42:47;12.39;73.95
72126;SHT31;59999;51.676;22.650;2023-03-24T00:45:16;12.38;73.98
72126;SHT31;59999;51.676;22.650;2023-03-24T00:47:44;12.38;73.89
72126;SHT31;59999;51.676;22.650;2023-03-24T00:50:14;12.38;73.90
72126;SHT31;59999;51.676;22.650;2023-03-24T00:52:41;12.36;73.97
72126;SHT31;59999;51.676;22.650;2023-03-24T00:55:11;12.32;74.22
72126;SHT31;59999;51.676;22.650;2023-03-24T00:57:42;12.31;73.93
72126;SHT31;59999;51.676;22.650;2023-03-24T01:00:18;12.32;73.97
72126;SHT31;59999;51.676;22.650;2023-03-24T01:02:47;12.35;73.57
72126;SHT31;59999;51.676;22.650;2023-03-24T01:05:13;12.35;73.59
72126;SHT31;59999;51.676;22.650;2023-03-24T01:07:42;12.35;73.60
72126;SHT31;59999;51.676;22.650;2023-03-24T01:10:11;12.36;73.62
72126;SHT31;59999;51.676;22.650;2023-03-24T01:12:38;12.32;73.63
72126;SHT31;59999;51.676;22.650;2023-03-24T01:15:12;12.36;73.47
72126;SHT31;59999;51.676;22.650;2023-03-24T01:17:40;12.39;73.46
72126;SHT31;59999;51.676;22.650;2023-03-24T01:20:07;12.39;73.40
72126;SHT31;59999;51.676;22.650;2023-03-24T01:22:37;12.43;73.25
72126;SHT31;59999;51.676;22.650;2023-03-24T01:25:15;12.45;73.23
72126;SHT31;59999;51.676;22.650;2023-03-24T01:27:42;12.48;73.18
72126;SHT31;59999;51.676;22.650;2023-03-24T01:30:12;12.48;73.20
72126;SHT31;59999;51.676;22.650;2023-03-24T01:32:39;12.46;73.16
72126;SHT31;59999;51.676;22.650;2023-03-24T01:35:05;12.48;73.10
72126;SHT31;59999;51.676;22.650;2023-03-24T01:37:31;12.48;73.19
72126;SHT31;59999;51.676;22.650;2023-03-24T01:39:57;12.46;73.30
72126;SHT31;59999;51.676;22.650;2023-03-24T01:42:24;12.41;73.65
72126;SHT31;59999;51.676;22.650;2023-03-24T01:44:55;12.33;73.83
72126;SHT31;59999;51.676;22.650;2023-03-24T01:47:22;12.25;74.09
72126;SHT31;59999;51.676;22.650;2023-03-24T01:49:50;12.20;74.19
72126;SHT31;59999;51.676;22.650;2023-03-24T01:52:29;12.12;74.27
72126;SHT31;59999;51.676;22.650;2023-03-24T01:55:06;12.08;74.24
72126;SHT31;59999;51.676;22.650;2023-03-24T01:57:42;12.06;74.28
72126;SHT31;59999;51.676;22.650;2023-03-24T02:00:13;12.04;74.18
72126;SHT31;59999;51.676;22.650;2023-03-24T02:02:42;12.05;74.19
72126;SHT31;59999;51.676;22.650;2023-03-24T02:05:12;12.04;74.18
72126;SHT31;59999;51.676;22.650;2023-03-24T02:08:00;12.02;74.15
72126;SHT31;59999;51.676;22.650;2023-03-24T02:10:30;11.99;74.16
72126;SHT31;59999;51.676;22.650;2023-03-24T02:12:57;11.99;74.21
72126;SHT31;59999;51.676;22.650;2023-03-24T02:15:28;11.98;74.26
72126;SHT31;59999;51.676;22.650;2023-03-24T02:18:10;11.93;74.28
72126;SHT31;59999;51.676;22.650;2023-03-24T02:21:11;11.91;74.26
72126;SHT31;59999;51.676;22.650;2023-03-24T02:40:21;11.60;74.91
72126;SHT31;59999;51.676;22.650;2023-03-24T02:45:36;11.43;75.33
72126;SHT31;59999;51.676;22.650;2023-03-24T02:59:06;10.99;76.35
72126;SHT31;59999;51.676;22.650;2023-03-24T03:01:53;10.95;76.43
72126;SHT31;59999;51.676;22.650;2023-03-24T03:04:47;10.89;76.68
72126;SHT31;59999;51.676;22.650;2023-03-24T03:07:17;10.79;76.97
72126;SHT31;59999;51.676;22.650;2023-03-24T03:12:36;10.58;77.81
72126;SHT31;59999;51.676;22.650;2023-03-24T03:15:09;10.46;78.10
72126;SHT31;59999;51.676;22.650;2023-03-24T03:17:50;10.29;78.57
72126;SHT31;59999;51.676;22.650;2023-03-24T03:20:21;10.14;78.77
72126;SHT31;59999;51.676;22.650;2023-03-24T03:22:49;10.05;79.06
72126;SHT31;59999;51.676;22.650;2023-03-24T03:25:21;9.98;78.98
72126;SHT31;59999;51.676;22.650;2023-03-24T03:27:50;9.90;78.72
72126;SHT31;59999;51.676;22.650;2023-03-24T03:30:32;9.89;78.82
72126;SHT31;59999;51.676;22.650;2023-03-24T03:33:09;9.86;79.16
72126;SHT31;59999;51.676;22.650;2023-03-24T03:35:41;9.82;79.09
72126;SHT31;59999;51.676;22.650;2023-03-24T03:38:15;9.82;79.29
72126;SHT31;59999;51.676;22.650;2023-03-24T03:40:58;9.86;79.38
72126;SHT31;59999;51.676;22.650;2023-03-24T03:43:26;9.89;79.57
72126;SHT31;59999;51.676;22.650;2023-03-24T03:45:53;9.90;79.11
72126;SHT31;59999;51.676;22.650;2023-03-24T03:48:19;9.90;78.94
72126;SHT31;59999;51.676;22.650;2023-03-24T03:50:46;9.85;78.59
72126;SHT31;59999;51.676;22.650;2023-03-24T03:53:14;9.77;78.69
72126;SHT31;59999;51.676;22.650;2023-03-24T03:55:41;9.68;79.09
72126;SHT31;59999;51.676;22.650;2023-03-24T03:58:07;9.61;79.32
72126;SHT31;59999;51.676;22.650;2023-03-24T04:00:34;9.55;79.80
72126;SHT31;59999;51.676;22.650;2023-03-24T04:05:56;9.45;80.06
72126;SHT31;59999;51.676;22.650;2023-03-24T04:08:43;9.42;80.42
72126;SHT31;59999;51.676;22.650;2023-03-24T04:11:21;9.40;80.56
72126;SHT31;59999;51.676;22.650;2023-03-24T04:16:47;9.51;80.75
72126;SHT31;59999;51.676;22.650;2023-03-24T04:20:15;9.51;80.34
72126;SHT31;59999;51.676;22.650;2023-03-24T04:36:30;9.21;81.01
72126;SHT31;59999;51.676;22.650;2023-03-24T04:38:59;9.17;80.70
72126;SHT31;59999;51.676;22.650;2023-03-24T04:41:28;9.03;79.40
72126;SHT31;59999;51.676;22.650;2023-03-24T04:43:56;8.79;78.99
72126;SHT31;59999;51.676;22.650;2023-03-24T04:46:23;8.59;80.16
72126;SHT31;59999;51.676;22.650;2023-03-24T04:48:49;8.48;80.82
72126;SHT31;59999;51.676;22.650;2023-03-24T04:51:17;8.42;81.37
72126;SHT31;59999;51.676;22.650;2023-03-24T04:53:44;8.33;81.94
72126;SHT31;59999;51.676;22.650;2023-03-24T04:56:30;8.34;82.38
72126;SHT31;59999;51.676;22.650;2023-03-24T04:58:58;8.38;82.81
72126;SHT31;59999;51.676;22.650;2023-03-24T05:01:25;8.41;82.97
72126;SHT31;59999;51.676;22.650;2023-03-24T05:03:58;8.46;83.13
72126;SHT31;59999;51.676;22.650;2023-03-24T05:06:24;8.54;83.13
72126;SHT31;59999;51.676;22.650;2023-03-24T05:08:51;8.59;83.02
72126;SHT31;59999;51.676;22.650;2023-03-24T05:11:19;8.68;82.76
72126;SHT31;59999;51.676;22.650;2023-03-24T05:13:45;8.68;82.72
72126;SHT31;59999;51.676;22.650;2023-03-24T05:16:12;8.76;82.85
72126;SHT31;59999;51.676;22.650;2023-03-24T05:18:38;8.80;82.94
72126;SHT31;59999;51.676;22.650;2023-03-24T05:21:05;8.86;82.69
72126;SHT31;59999;51.676;22.650;2023-03-24T05:23:32;8.89;82.44
72126;SHT31;59999;51.676;22.650;2023-03-24T05:25:58;8.89;82.66
72126;SHT31;59999;51.676;22.650;2023-03-24T05:28:24;8.96;83.04
72126;SHT31;59999;51.676;22.650;2023-03-24T05:30:50;9.03;83.14
72126;SHT31;59999;51.676;22.650;2023-03-24T05:33:16;9.10;83.26
72126;SHT31;59999;51.676;22.650;2023-03-24T05:35:42;9.20;83.42
72126;SHT31;59999;51.676;22.650;2023-03-24T05:38:08;9.31;83.33
72126;SHT31;59999;51.676;22.650;2023-03-24T05:40:35;9.45;83.31
72126;SHT31;59999;51.676;22.650;2023-03-24T05:43:01;9.61;83.12
72126;SHT31;59999;51.676;22.650;2023-03-24T05:45:27;9.74;82.71
72126;SHT31;59999;51.676;22.650;2023-03-24T05:47:54;9.89;82.33
72126;SHT31;59999;51.676;22.650;2023-03-24T05:50:21;10.03;81.63
72126;SHT31;59999;51.676;22.650;2023-03-24T05:52:48;10.19;81.37
72126;SHT31;59999;51.676;22.650;2023-03-24T05:55:14;10.32;81.06
72126;SHT31;59999;51.676;22.650;2023-03-24T05:57:41;10.47;80.96
72126;SHT31;59999;51.676;22.650;2023-03-24T06:00:08;10.61;80.76
72126;SHT31;59999;51.676;22.650;2023-03-24T06:02:40;10.75;80.32
72126;SHT31;59999;51.676;22.650;2023-03-24T06:05:06;10.91;80.31
72126;SHT31;59999;51.676;22.650;2023-03-24T06:07:33;11.04;80.90
72126;SHT31;59999;51.676;22.650;2023-03-24T06:09:59;11.18;80.17
72126;SHT31;59999;51.676;22.650;2023-03-24T06:12:28;11.30;79.36
72126;SHT31;59999;51.676;22.650;2023-03-24T06:14:56;11.43;78.52
72126;SHT31;59999;51.676;22.650;2023-03-24T06:17:23;11.60;77.64
72126;SHT31;59999;51.676;22.650;2023-03-24T06:19:49;11.74;76.67
72126;SHT31;59999;51.676;22.650;2023-03-24T06:22:16;11.90;76.11
72126;SHT31;59999;51.676;22.650;2023-03-24T06:24:43;12.01;75.17
72126;SHT31;59999;51.676;22.650;2023-03-24T06:27:10;12.11;74.68
72126;SHT31;59999;51.676;22.650;2023-03-24T06:29:36;12.22;74.51
72126;SHT31;59999;51.676;22.650;2023-03-24T06:32:03;12.25;73.71
72126;SHT31;59999;51.676;22.650;2023-03-24T06:34:30;12.28;73.93
72126;SHT31;59999;51.676;22.650;2023-03-24T06:36:56;12.38;73.41
72126;SHT31;59999;51.676;22.650;2023-03-24T06:39:22;12.38;73.29
72126;SHT31;59999;51.676;22.650;2023-03-24T06:41:48;12.43;72.93
72126;SHT31;59999;51.676;22.650;2023-03-24T06:44:14;12.46;73.18
72126;SHT31;59999;51.676;22.650;2023-03-24T06:46:41;12.48;72.56
72126;SHT31;59999;51.676;22.650;2023-03-24T06:49:07;12.45;73.19
72126;SHT31;59999;51.676;22.650;2023-03-24T06:51:33;12.45;72.91
72126;SHT31;59999;51.676;22.650;2023-03-24T06:53:59;12.41;72.79
72126;SHT31;59999;51.676;22.650;2023-03-24T06:56:25;12.39;73.11
72126;SHT31;59999;51.676;22.650;2023-03-24T06:58:51;12.39;73.17
72126;SHT31;59999;51.676;22.650;2023-03-24T07:01:17;12.36;73.63
72126;SHT31;59999;51.676;22.650;2023-03-24T07:03:44;12.33;74.22
72126;SHT31;59999;51.676;22.650;2023-03-24T07:06:10;12.31;74.59
72126;SHT31;59999;51.676;22.650;2023-03-24T07:08:36;12.31;73.91
72126;SHT31;59999;51.676;22.650;2023-03-24T07:11:03;12.33;74.75
72126;SHT31;59999;51.676;22.650;2023-03-24T07:13:29;12.29;74.74
72126;SHT31;59999;51.676;22.650;2023-03-24T07:15:55;12.32;75.36
72126;SHT31;59999;51.676;22.650;2023-03-24T07:18:21;12.31;75.73
72126;SHT31;59999;51.676;22.650;2023-03-24T07:20:47;12.29;76.43
72126;SHT31;59999;51.676;22.650;2023-03-24T07:23:13;12.29;76.82
72126;SHT31;59999;51.676;22.650;2023-03-24T07:25:40;12.26;77.23
72126;SHT31;59999;51.676;22.650;2023-03-24T07:28:06;12.29;77.07
72126;SHT31;59999;51.676;22.650;2023-03-24T07:30:33;12.31;77.12
72126;SHT31;59999;51.676;22.650;2023-03-24T07:33:02;12.35;76.95
72126;SHT31;59999;51.676;22.650;2023-03-24T07:35:30;12.39;76.65
72126;SHT31;59999;51.676;22.650;2023-03-24T07:37:59;12.43;77.86
72126;SHT31;59999;51.676;22.650;2023-03-24T07:40:26;12.45;77.80
72126;SHT31;59999;51.676;22.650;2023-03-24T07:42:52;12.46;77.41
72126;SHT31;59999;51.676;22.650;2023-03-24T07:45:18;12.50;77.85
72126;SHT31;59999;51.676;22.650;2023-03-24T07:47:45;12.50;78.05
72126;SHT31;59999;51.676;22.650;2023-03-24T07:50:12;12.50;78.08
72126;SHT31;59999;51.676;22.650;2023-03-24T07:52:40;12.50;77.42
72126;SHT31;59999;51.676;22.650;2023-03-24T07:55:09;12.55;76.46
72126;SHT31;59999;51.676;22.650;2023-03-24T07:57:39;12.59;76.99
72126;SHT31;59999;51.676;22.650;2023-03-24T08:00:08;12.59;76.88
72126;SHT31;59999;51.676;22.650;2023-03-24T08:02:41;12.59;76.82
72126;SHT31;59999;51.676;22.650;2023-03-24T08:05:08;12.56;77.73
72126;SHT31;59999;51.676;22.650;2023-03-24T08:07:35;12.56;77.36
72126;SHT31;59999;51.676;22.650;2023-03-24T08:10:02;12.55;77.62
72126;SHT31;59999;51.676;22.650;2023-03-24T08:12:28;12.53;77.74
72126;SHT31;59999;51.676;22.650;2023-03-24T08:14:54;12.53;78.45
72126;SHT31;59999;51.676;22.650;2023-03-24T08:17:20;12.53;78.67
72126;SHT31;59999;51.676;22.650;2023-03-24T08:19:46;12.53;78.95
72126;SHT31;59999;51.676;22.650;2023-03-24T08:22:13;12.46;78.85
72126;SHT31;59999;51.676;22.650;2023-03-24T08:24:39;12.46;79.46
72126;SHT31;59999;51.676;22.650;2023-03-24T08:27:05;12.43;80.16
72126;SHT31;59999;51.676;22.650;2023-03-24T08:29:32;12.39;80.38
72126;SHT31;59999;51.676;22.650;2023-03-24T08:32:01;12.33;80.36
72126;SHT31;59999;51.676;22.650;2023-03-24T08:34:27;12.33;80.63
72126;SHT31;59999;51.676;22.650;2023-03-24T08:36:53;12.29;80.70
72126;SHT31;59999;51.676;22.650;2023-03-24T08:39:19;12.35;81.30
72126;SHT31;59999;51.676;22.650;2023-03-24T08:41:46;12.38;81.27
72126;SHT31;59999;51.676;22.650;2023-03-24T08:44:15;12.41;81.41
72126;SHT31;59999;51.676;22.650;2023-03-24T08:46:41;12.43;80.68
72126;SHT31;59999;51.676;22.650;2023-03-24T08:49:07;12.48;80.92
72126;SHT31;59999;51.676;22.650;2023-03-24T08:51:33;12.50;81.06
72126;SHT31;59999;51.676;22.650;2023-03-24T08:53:59;12.55;80.70
72126;SHT31;59999;51.676;22.650;2023-03-24T08:56:26;12.63;81.56
72126;SHT31;59999;51.676;22.650;2023-03-24T08:58:52;12.75;81.53
72126;SHT31;59999;51.676;22.650;2023-03-24T09:01:19;12.87;81.23
72126;SHT31;59999;51.676;22.650;2023-03-24T09:03:46;12.89;80.02
72126;SHT31;59999;51.676;22.650;2023-03-24T09:06:13;12.96;80.30
72126;SHT31;59999;51.676;22.650;2023-03-24T09:08:39;12.99;80.62
72126;SHT31;59999;51.676;22.650;2023-03-24T09:11:06;13.01;79.79
72126;SHT31;59999;51.676;22.650;2023-03-24T09:13:32;13.03;80.53
72126;SHT31;59999;51.676;22.650;2023-03-24T09:16:01;13.07;79.90
72126;SHT31;59999;51.676;22.650;2023-03-24T09:18:27;13.08;80.44
72126;SHT31;59999;51.676;22.650;2023-03-24T09:20:53;13.15;80.75
72126;SHT31;59999;51.676;22.650;2023-03-24T09:23:20;13.20;80.14
72126;SHT31;59999;51.676;22.650;2023-03-24T09:25:51;13.25;79.80
72126;SHT31;59999;51.676;22.650;2023-03-24T09:28:17;13.25;79.31
72126;SHT31;59999;51.676;22.650;2023-03-24T09:30:43;13.28;80.23
72126;SHT31;59999;51.676;22.650;2023-03-24T09:33:09;13.29;80.13
72126;SHT31;59999;51.676;22.650;2023-03-24T09:35:35;13.29;79.80
72126;SHT31;59999;51.676;22.650;2023-03-24T09:38:01;13.27;79.21
72126;SHT31;59999;51.676;22.650;2023-03-24T09:40:30;13.27;80.32
72126;SHT31;59999;51.676;22.650;2023-03-24T09:43:03;13.27;79.97
72126;SHT31;59999;51.676;22.650;2023-03-24T09:45:34;13.22;80.59
72126;SHT31;59999;51.676;22.650;2023-03-24T09:48:10;13.22;80.99
72126;SHT31;59999;51.676;22.650;2023-03-24T09:50:42;13.31;80.81
72126;SHT31;59999;51.676;22.650;2023-03-24T09:56:20;13.75;79.90
72126;SHT31;59999;51.676;22.650;2023-03-24T09:58:50;13.86;79.99
72126;SHT31;59999;51.676;22.650;2023-03-24T10:01:17;14.03;78.46
72126;SHT31;59999;51.676;22.650;2023-03-24T10:03:45;14.06;77.89
72126;SHT31;59999;51.676;22.650;2023-03-24T10:06:24;14.17;78.01
72126;SHT31;59999;51.676;22.650;2023-03-24T10:09:15;14.20;76.43
72126;SHT31;59999;51.676;22.650;2023-03-24T10:25:51;14.35;74.73
72126;SHT31;59999;51.676;22.650;2023-03-24T10:31:00;14.61;73.33
72126;SHT31;59999;51.676;22.650;2023-03-24T10:33:28;14.79;75.59
72126;SHT31;59999;51.676;22.650;2023-03-24T10:36:05;15.12;75.44
72126;SHT31;59999;51.676;22.650;2023-03-24T10:38:32;15.29;73.29
72126;SHT31;59999;51.676;22.650;2023-03-24T10:40:59;15.50;70.54
72126;SHT31;59999;51.676;22.650;2023-03-24T10:43:26;15.57;72.37
72126;SHT31;59999;51.676;22.650;2023-03-24T10:45:54;15.67;70.70
72126;SHT31;59999;51.676;22.650;2023-03-24T10:48:42;15.82;70.18
72126;SHT31;59999;51.676;22.650;2023-03-24T10:51:17;15.85;70.52
72126;SHT31;59999;51.676;22.650;2023-03-24T10:53:45;15.88;71.09
72126;SHT31;59999;51.676;22.650;2023-03-24T10:56:21;15.91;72.07
72126;SHT31;59999;51.676;22.650;2023-03-24T10:59:14;15.91;67.58
72126;SHT31;59999;51.676;22.650;2023-03-24T11:01:43;16.06;68.44
72126;SHT31;59999;51.676;22.650;2023-03-24T11:04:13;16.09;67.86
72126;SHT31;59999;51.676;22.650;2023-03-24T11:07:03;16.29;66.71
72126;SHT31;59999;51.676;22.650;2023-03-24T11:09:42;16.39;65.88
72126;SHT31;59999;51.676;22.650;2023-03-24T11:12:26;16.30;65.07
72126;SHT31;59999;51.676;22.650;2023-03-24T11:17:43;16.28;65.69
72126;SHT31;59999;51.676;22.650;2023-03-24T11:20:39;16.34;64.57
72126;SHT31;59999;51.676;22.650;2023-03-24T11:23:24;16.60;66.45
72126;SHT31;59999;51.676;22.650;2023-03-24T11:28:29;17.22;63.63
72126;SHT31;59999;51.676;22.650;2023-03-24T11:31:05;17.53;64.35
72126;SHT31;59999;51.676;22.650;2023-03-24T11:33:35;17.50;60.64
72126;SHT31;59999;51.676;22.650;2023-03-24T11:36:35;17.31;62.75
72126;SHT31;59999;51.676;22.650;2023-03-24T11:39:10;17.11;61.57
72126;SHT31;59999;51.676;22.650;2023-03-24T11:41:40;17.04;63.17
72126;SHT31;59999;51.676;22.650;2023-03-24T11:44:21;16.95;62.31
72126;SHT31;59999;51.676;22.650;2023-03-24T11:55:16;17.17;62.23
72126;SHT31;59999;51.676;22.650;2023-03-24T12:00:26;17.25;61.97
72126;SHT31;59999;51.676;22.650;2023-03-24T12:13:41;17.46;60.08
72126;SHT31;59999;51.676;22.650;2023-03-24T12:16:24;17.43;60.24
72126;SHT31;59999;51.676;22.650;2023-03-24T12:21:48;17.49;59.10
72126;SHT31;59999;51.676;22.650;2023-03-24T12:27:03;17.57;59.46
72126;SHT31;59999;51.676;22.650;2023-03-24T12:45:58;17.59;64.38
72126;SHT31;59999;51.676;22.650;2023-03-24T12:51:52;17.73;64.88
72126;SHT31;59999;51.676;22.650;2023-03-24T12:57:08;18.08;63.09
72126;SHT31;59999;51.676;22.650;2023-03-24T12:59:39;18.25;64.03
72126;SHT31;59999;51.676;22.650;2023-03-24T13:02:18;18.38;61.88
72126;SHT31;59999;51.676;22.650;2023-03-24T13:04:48;18.42;63.58
72126;SHT31;59999;51.676;22.650;2023-03-24T13:07:20;18.42;61.64
72126;SHT31;59999;51.676;22.650;2023-03-24T13:10:02;18.49;63.76
72126;SHT31;59999;51.676;22.650;2023-03-24T13:13:16;18.49;62.04
72126;SHT31;59999;51.676;22.650;2023-03-24T13:15:55;18.47;61.47
72126;SHT31;59999;51.676;22.650;2023-03-24T13:18:31;18.51;63.84
72126;SHT31;59999;51.676;22.650;2023-03-24T13:21:23;18.56;62.57
72126;SHT31;59999;51.676;22.650;2023-03-24T13:32:04;18.92;61.30
72126;SHT31;59999;51.676;22.650;2023-03-24T13:34:39;18.98;61.24
72126;SHT31;59999;51.676;22.650;2023-03-24T13:37:14;19.06;61.44
72126;SHT31;59999;51.676;22.650;2023-03-24T13:39:43;19.17;61.15
72126;SHT31;59999;51.676;22.650;2023-03-24T13:42:44;19.07;58.61
72126;SHT31;59999;51.676;22.650;2023-03-24T13:45:47;19.07;59.00
72126;SHT31;59999;51.676;22.650;2023-03-24T13:48:26;19.07;60.22
72126;SHT31;59999;51.676;22.650;2023-03-24T13:50:59;18.96;59.04
72126;SHT31;59999;51.676;22.650;2023-03-24T13:53:32;18.99;58.19
72126;SHT31;59999;51.676;22.650;2023-03-24T13:55:59;18.98;57.85
72126;SHT31;59999;51.676;22.650;2023-03-24T13:58:44;18.99;58.24
72126;SHT31;59999;51.676;22.650;2023-03-24T14:03:41;18.95;58.04
72126;SHT31;59999;51.676;22.650;2023-03-24T14:06:17;18.89;57.63
72126;SHT31;59999;51.676;22.650;2023-03-24T14:14:23;18.96;59.13
72126;SHT31;59999;51.676;22.650;2023-03-24T14:20:01;18.82;58.53
72126;SHT31;59999;51.676;22.650;2023-03-24T14:22:34;18.76;57.90
72126;SHT31;59999;51.676;22.650;2023-03-24T14:29:59;18.62;58.73
72126;SHT31;59999;51.676;22.650;2023-03-24T14:32:25;18.56;60.11
72126;SHT31;59999;51.676;22.650;2023-03-24T14:34:55;18.48;61.11
72126;SHT31;59999;51.676;22.650;2023-03-24T14:37:25;18.37;62.36
72126;SHT31;59999;51.676;22.650;2023-03-24T14:39:52;18.32;63.49
72126;SHT31;59999;51.676;22.650;2023-03-24T14:45:01;18.20;61.66
72126;SHT31;59999;51.676;22.650;2023-03-24T14:47:36;18.18;61.57
72126;SHT31;59999;51.676;22.650;2023-03-24T14:50:30;18.08;62.60
72126;SHT31;59999;51.676;22.650;2023-03-24T14:53:01;18.04;62.17
72126;SHT31;59999;51.676;22.650;2023-03-24T14:55:29;17.98;62.62
72126;SHT31;59999;51.676;22.650;2023-03-24T14:58:16;18.01;61.13
72126;SHT31;59999;51.676;22.650;2023-03-24T15:00:47;17.96;61.47
72126;SHT31;59999;51.676;22.650;2023-03-24T15:03:35;17.90;61.81
72126;SHT31;59999;51.676;22.650;2023-03-24T15:06:17;17.86;60.84
72126;SHT31;59999;51.676;22.650;2023-03-24T15:08:47;17.83;61.72
72126;SHT31;59999;51.676;22.650;2023-03-24T15:11:15;17.82;60.30
72126;SHT31;59999;51.676;22.650;2023-03-24T15:13:48;17.80;58.92
72126;SHT31;59999;51.676;22.650;2023-03-24T15:16:19;17.76;59.82
72126;SHT31;59999;51.676;22.650;2023-03-24T15:21:39;17.56;60.82
72126;SHT31;59999;51.676;22.650;2023-03-24T15:29:36;17.53;60.02
72126;SHT31;59999;51.676;22.650;2023-03-24T15:32:03;17.47;60.32
72126;SHT31;59999;51.676;22.650;2023-03-24T15:34:40;17.45;60.81
72126;SHT31;59999;51.676;22.650;2023-03-24T15:37:20;17.40;61.12
72126;SHT31;59999;51.676;22.650;2023-03-24T15:39:52;17.35;61.48
72126;SHT31;59999;51.676;22.650;2023-03-24T15:42:22;17.28;62.35
72126;SHT31;59999;51.676;22.650;2023-03-24T15:44:49;17.26;62.50
72126;SHT31;59999;51.676;22.650;2023-03-24T15:47:24;17.14;63.77
72126;SHT31;59999;51.676;22.650;2023-03-24T15:49:53;17.03;63.71
72126;SHT31;59999;51.676;22.650;2023-03-24T15:54:51;16.92;64.03
72126;SHT31;59999;51.676;22.650;2023-03-24T15:57:20;16.92;63.19
72126;SHT31;59999;51.676;22.650;2023-03-24T15:59:48;16.80;64.08
72126;SHT31;59999;51.676;22.650;2023-03-24T16:05:30;16.63;64.04
72126;SHT31;59999;51.676;22.650;2023-03-24T16:13:03;16.50;64.40
72126;SHT31;59999;51.676;22.650;2023-03-24T16:15:31;16.52;64.24
72126;SHT31;59999;51.676;22.650;2023-03-24T16:17:57;16.43;64.28
72126;SHT31;59999;51.676;22.650;2023-03-24T16:20:23;16.43;63.51
72126;SHT31;59999;51.676;22.650;2023-03-24T16:22:49;16.39;63.98
72126;SHT31;59999;51.676;22.650;2023-03-24T16:25:15;16.36;64.22
72126;SHT31;59999;51.676;22.650;2023-03-24T16:27:41;16.29;65.08
72126;SHT31;59999;51.676;22.650;2023-03-24T16:30:25;16.23;64.93
72126;SHT31;59999;51.676;22.650;2023-03-24T16:32:52;16.22;64.97
72126;SHT31;59999;51.676;22.650;2023-03-24T16:35:17;16.13;65.07
72126;SHT31;59999;51.676;22.650;2023-03-24T16:37:43;16.05;65.79
72126;SHT31;59999;51.676;22.650;2023-03-24T16:40:40;16.04;65.41
72126;SHT31;59999;51.676;22.650;2023-03-24T16:43:08;15.99;65.61
72126;SHT31;59999;51.676;22.650;2023-03-24T16:45:34;15.92;66.13
72126;SHT31;59999;51.676;22.650;2023-03-24T16:48:00;15.90;66.20
72126;SHT31;59999;51.676;22.650;2023-03-24T16:50:35;15.78;66.46
72126;SHT31;59999;51.676;22.650;2023-03-24T16:53:03;15.72;66.67
72126;SHT31;59999;51.676;22.650;2023-03-24T16:55:30;15.65;67.04
72126;SHT31;59999;51.676;22.650;2023-03-24T16:57:56;15.61;67.10
72126;SHT31;59999;51.676;22.650;2023-03-24T17:00:22;15.54;67.21
72126;SHT31;59999;51.676;22.650;2023-03-24T17:02:49;15.53;66.76
72126;SHT31;59999;51.676;22.650;2023-03-24T17:05:24;15.46;67.16
72126;SHT31;59999;51.676;22.650;2023-03-24T17:07:56;15.49;66.97
72126;SHT31;59999;51.676;22.650;2023-03-24T17:10:23;15.41;66.82
72126;SHT31;59999;51.676;22.650;2023-03-24T17:12:52;15.37;66.52
72126;SHT31;59999;51.676;22.650;2023-03-24T17:15:24;15.41;66.25
72126;SHT31;59999;51.676;22.650;2023-03-24T17:17:50;15.40;66.04
72126;SHT31;59999;51.676;22.650;2023-03-24T17:20:17;15.37;65.93
72126;SHT31;59999;51.676;22.650;2023-03-24T17:22:45;15.41;65.78
72126;SHT31;59999;51.676;22.650;2023-03-24T17:25:13;15.39;65.06
72126;SHT31;59999;51.676;22.650;2023-03-24T17:27:40;15.41;65.09
72126;SHT31;59999;51.676;22.650;2023-03-24T17:30:06;15.50;64.45
72126;SHT31;59999;51.676;22.650;2023-03-24T17:32:34;15.47;63.49
72126;SHT31;59999;51.676;22.650;2023-03-24T17:35:00;15.49;63.34
72126;SHT31;59999;51.676;22.650;2023-03-24T17:37:28;15.53;62.51
72126;SHT31;59999;51.676;22.650;2023-03-24T17:39:55;15.55;62.38
72126;SHT31;59999;51.676;22.650;2023-03-24T17:42:23;15.57;62.60
72126;SHT31;59999;51.676;22.650;2023-03-24T17:44:50;15.49;62.89
72126;SHT31;59999;51.676;22.650;2023-03-24T17:47:16;15.49;62.02
72126;SHT31;59999;51.676;22.650;2023-03-24T17:49:43;15.46;62.56
72126;SHT31;59999;51.676;22.650;2023-03-24T17:52:09;15.50;61.93
72126;SHT31;59999;51.676;22.650;2023-03-24T17:54:35;15.53;61.70
72126;SHT31;59999;51.676;22.650;2023-03-24T17:57:01;15.55;61.75
72126;SHT31;59999;51.676;22.650;2023-03-24T17:59:27;15.54;61.73
72126;SHT31;59999;51.676;22.650;2023-03-24T18:01:53;15.53;61.65
72126;SHT31;59999;51.676;22.650;2023-03-24T18:04:19;15.54;60.97
72126;SHT31;59999;51.676;22.650;2023-03-24T18:06:46;15.50;61.71
72126;SHT31;59999;51.676;22.650;2023-03-24T18:09:12;15.50;61.16
72126;SHT31;59999;51.676;22.650;2023-03-24T18:11:38;15.51;61.48
72126;SHT31;59999;51.676;22.650;2023-03-24T18:14:04;15.55;61.20
72126;SHT31;59999;51.676;22.650;2023-03-24T18:16:30;15.51;61.30
72126;SHT31;59999;51.676;22.650;2023-03-24T18:18:59;15.51;60.88
72126;SHT31;59999;51.676;22.650;2023-03-24T18:21:27;15.43;61.95
72126;SHT31;59999;51.676;22.650;2023-03-24T18:23:53;15.47;61.48
72126;SHT31;59999;51.676;22.650;2023-03-24T18:26:19;15.36;61.77
72126;SHT31;59999;51.676;22.650;2023-03-24T18:28:46;15.37;61.90
72126;SHT31;59999;51.676;22.650;2023-03-24T18:31:14;15.33;61.62